sensor_id;sensor_type;location;lat;lon;timestamp;temperature;humidity
30534;DHT22;17318;52.390;9.754;2023-05-29T00:01:44;17.50;87.90
30534;DHT22;17318;52.390;9.754;2023-05-29T00:04:10;17.50;88.20
30534;DHT22;17318;52.390;9.754;2023-05-29T00:06:37;17.40;88.60
30534;DHT22;17318;52.390;9.754;2023-05-29T00:09:03;17.30;88.80
30534;DHT22;17318;52.390;9.754;2023-05-29T00:11:30;17.30;88.40
30534;DHT22;17318;52.390;9.754;2023-05-29T00:13:56;17.30;88.40
30534;DHT22;17318;52.390;9.754;2023-05-29T00:16:22;17.30;89.30
30534;DHT22;17318;52.390;9.754;2023-05-29T00:18:49;17.20;89.40
30534;DHT22;17318;52.390;9.754;2023-05-29T00:21:15;17.10;89.20
30534;DHT22;17318;52.390;9.754;2023-05-29T00:23:41;17.10;89.30
30534;DHT22;17318;52.390;9.754;2023-05-29T00:26:07;17.20;88.70
30534;DHT22;17318;52.390;9.754;2023-05-29T00:28:34;17.00;88.50
30534;DHT22;17318;52.390;9.754;2023-05-29T00:31:00;16.90;88.40
30534;DHT22;17318;52.390;9.754;2023-05-29T00:33:26;17.00;89.40
30534;DHT22;17318;52.390;9.754;2023-05-29T00:35:52;16.90;89.50
30534;DHT22;17318;52.390;9.754;2023-05-29T00:38:18;16.90;89.70
30534;DHT22;17318;52.390;9.754;2023-05-29T00:40:43;16.80;90.00
30534;DHT22;17318;52.390;9.754;2023-05-29T00:43:09;16.70;89.70
30534;DHT22;17318;52.390;9.754;2023-05-29T00:45:35;16.70;89.40
30534;DHT22;17318;52.390;9.754;2023-05-29T00:48:02;16.70;89.90
30534;DHT22;17318;52.390;9.754;2023-05-29T00:50:28;16.60;89.90
30534;DHT22;17318;52.390;9.754;2023-05-29T00:52:54;16.60;89.80
30534;DHT22;17318;52.390;9.754;2023-05-29T00:55:20;16.40;89.70
30534;DHT22;17318;52.390;9.754;2023-05-29T00:57:46;16.50;89.90
30534;DHT22;17318;52.390;9.754;2023-05-29T01:00:13;16.40;89.80
30534;DHT22;17318;52.390;9.754;2023-05-29T01:02:40;16.30;90.10
30534;DHT22;17318;52.390;9.754;2023-05-29T01:05:13;16.30;89.60
30534;DHT22;17318;52.390;9.754;2023-05-29T01:07:42;16.20;90.00
30534;DHT22;17318;52.390;9.754;2023-05-29T01:10:08;16.10;90.10
30534;DHT22;17318;52.390;9.754;2023-05-29T01:12:57;16.10;90.20
30534;DHT22;17318;52.390;9.754;2023-05-29T01:21:11;16.00;90.00
30534;DHT22;17318;52.390;9.754;2023-05-29T01:24:02;15.90;89.50
30534;DHT22;17318;52.390;9.754;2023-05-29T01:26:47;16.00;89.60
30534;DHT22;17318;52.390;9.754;2023-05-29T01:29:17;15.80;89.70
30534;DHT22;17318;52.390;9.754;2023-05-29T01:31:44;15.80;89.80
30534;DHT22;17318;52.390;9.754;2023-05-29T01:34:11;15.80;89.60
30534;DHT22;17318;52.390;9.754;2023-05-29T01:36:36;15.80;89.90
30534;DHT22;17318;52.390;9.754;2023-05-29T01:39:03;15.80;89.80
30534;DHT22;17318;52.390;9.754;2023-05-29T01:41:29;15.70;90.00
30534;DHT22;17318;52.390;9.754;2023-05-29T01:43:56;15.70;90.10
30534;DHT22;17318;52.390;9.754;2023-05-29T01:46:23;15.70;90.20
30534;DHT22;17318;52.390;9.754;2023-05-29T01:48:51;15.70;90.20
30534;DHT22;17318;52.390;9.754;2023-05-29T01:51:18;15.70;89.90
30534;DHT22;17318;52.390;9.754;2023-05-29T01:53:44;15.70;90.00
30534;DHT22;17318;52.390;9.754;2023-05-29T01:56:10;15.60;90.10
30534;DHT22;17318;52.390;9.754;2023-05-29T01:58:37;15.60;90.00
30534;DHT22;17318;52.390;9.754;2023-05-29T02:01:06;15.50;90.20
30534;DHT22;17318;52.390;9.754;2023-05-29T02:03:33;15.50;90.10
30534;DHT22;17318;52.390;9.754;2023-05-29T02:05:59;15.50;90.10
30534;DHT22;17318;52.390;9.754;2023-05-29T02:08:25;15.50;90.10
30534;DHT22;17318;52.390;9.754;2023-05-29T02:10:51;15.40;90.10
30534;DHT22;17318;52.390;9.754;2023-05-29T02:13:17;15.50;89.70
30534;DHT22;17318;52.390;9.754;2023-05-29T02:15:43;15.40;90.10
30534;DHT22;17318;52.390;9.754;2023-05-29T02:18:12;15.30;90.10
30534;DHT22;17318;52.390;9.754;2023-05-29T02:20:38;15.20;90.20
30534;DHT22;17318;52.390;9.754;2023-05-29T02:23:04;15.20;90.20
30534;DHT22;17318;52.390;9.754;2023-05-29T02:25:30;15.20;90.20
30534;DHT22;17318;52.390;9.754;2023-05-29T02:27:56;15.20;90.10
30534;DHT22;17318;52.390;9.754;2023-05-29T02:30:21;15.20;90.20
30534;DHT22;17318;52.390;9.754;2023-05-29T02:32:47;15.10;90.10
30534;DHT22;17318;52.390;9.754;2023-05-29T02:35:13;15.10;90.00
30534;DHT22;17318;52.390;9.754;2023-05-29T02:37:41;15.00;90.10
30534;DHT22;17318;52.390;9.754;2023-05-29T02:40:07;15.00;90.30
30534;DHT22;17318;52.390;9.754;2023-05-29T02:42:34;15.00;90.30
30534;DHT22;17318;52.390;9.754;2023-05-29T02:44:59;14.90;90.10
30534;DHT22;17318;52.390;9.754;2023-05-29T02:47:25;14.90;90.30
30534;DHT22;17318;52.390;9.754;2023-05-29T02:49:51;14.80;90.50
30534;DHT22;17318;52.390;9.754;2023-05-29T02:52:16;14.80;90.60
30534;DHT22;17318;52.390;9.754;2023-05-29T02:54:42;14.80;90.60
30534;DHT22;17318;52.390;9.754;2023-05-29T02:57:10;14.70;90.80
30534;DHT22;17318;52.390;9.754;2023-05-29T02:59:36;14.70;90.50
30534;DHT22;17318;52.390;9.754;2023-05-29T03:02:02;14.80;90.70
30534;DHT22;17318;52.390;9.754;2023-05-29T03:04:28;14.60;90.90
30534;DHT22;17318;52.390;9.754;2023-05-29T03:06:53;14.60;90.80
30534;DHT22;17318;52.390;9.754;2023-05-29T03:09:20;14.60;90.80
30534;DHT22;17318;52.390;9.754;2023-05-29T03:11:45;14.60;90.80
30534;DHT22;17318;52.390;9.754;2023-05-29T03:14:13;14.60;90.70
30534;DHT22;17318;52.390;9.754;2023-05-29T03:16:39;14.60;90.90
30534;DHT22;17318;52.390;9.754;2023-05-29T03:19:09;14.60;91.00
30534;DHT22;17318;52.390;9.754;2023-05-29T03:21:34;14.60;90.70
30534;DHT22;17318;52.390;9.754;2023-05-29T03:24:01;14.60;90.80
30534;DHT22;17318;52.390;9.754;2023-05-29T03:26:28;14.60;90.90
30534;DHT22;17318;52.390;9.754;2023-05-29T03:28:54;14.60;91.00
30534;DHT22;17318;52.390;9.754;2023-05-29T03:31:19;14.50;91.00
30534;DHT22;17318;52.390;9.754;2023-05-29T03:33:45;14.50;90.90
30534;DHT22;17318;52.390;9.754;2023-05-29T03:36:11;14.50;90.90
30534;DHT22;17318;52.390;9.754;2023-05-29T03:38:37;14.50;90.90
30534;DHT22;17318;52.390;9.754;2023-05-29T03:41:03;14.50;90.90
30534;DHT22;17318;52.390;9.754;2023-05-29T03:43:28;14.50;90.90
30534;DHT22;17318;52.390;9.754;2023-05-29T03:45:54;14.60;90.90
30534;DHT22;17318;52.390;9.754;2023-05-29T03:48:20;14.50;91.00
30534;DHT22;17318;52.390;9.754;2023-05-29T03:50:46;14.60;90.90
30534;DHT22;17318;52.390;9.754;2023-05-29T03:53:12;14.70;91.00
30534;DHT22;17318;52.390;9.754;2023-05-29T03:55:38;14.60;91.00
30534;DHT22;17318;52.390;9.754;2023-05-29T03:58:03;14.60;90.90
30534;DHT22;17318;52.390;9.754;2023-05-29T04:00:29;14.60;91.10
30534;DHT22;17318;52.390;9.754;2023-05-29T04:02:55;14.60;91.00
30534;DHT22;17318;52.390;9.754;2023-05-29T04:05:21;14.60;91.00
30534;DHT22;17318;52.390;9.754;2023-05-29T04:07:47;14.60;91.00
30534;DHT22;17318;52.390;9.754;2023-05-29T04:10:12;14.60;91.10
30534;DHT22;17318;52.390;9.754;2023-05-29T04:12:38;14.70;90.90
30534;DHT22;17318;52.390;9.754;2023-05-29T04:15:05;14.70;90.90
30534;DHT22;17318;52.390;9.754;2023-05-29T04:17:31;14.70;91.00
30534;DHT22;17318;52.390;9.754;2023-05-29T04:19:56;14.70;90.90
30534;DHT22;17318;52.390;9.754;2023-05-29T04:22:22;14.70;90.90
30534;DHT22;17318;52.390;9.754;2023-05-29T04:24:48;14.80;90.80
30534;DHT22;17318;52.390;9.754;2023-05-29T04:27:14;14.80;90.80
30534;DHT22;17318;52.390;9.754;2023-05-29T04:29:43;14.80;90.70
30534;DHT22;17318;52.390;9.754;2023-05-29T04:32:09;14.80;90.90
30534;DHT22;17318;52.390;9.754;2023-05-29T04:34:37;14.80;91.00
30534;DHT22;17318;52.390;9.754;2023-05-29T04:37:05;14.80;90.70
30534;DHT22;17318;52.390;9.754;2023-05-29T04:39:31;14.70;90.80
30534;DHT22;17318;52.390;9.754;2023-05-29T04:41:57;14.80;90.90
30534;DHT22;17318;52.390;9.754;2023-05-29T04:44:24;14.80;90.80
30534;DHT22;17318;52.390;9.754;2023-05-29T04:46:52;14.70;90.90
30534;DHT22;17318;52.390;9.754;2023-05-29T04:49:18;14.70;90.90
30534;DHT22;17318;52.390;9.754;2023-05-29T04:51:44;14.70;90.70
30534;DHT22;17318;52.390;9.754;2023-05-29T04:54:11;14.80;90.80
30534;DHT22;17318;52.390;9.754;2023-05-29T04:56:37;14.70;90.80
30534;DHT22;17318;52.390;9.754;2023-05-29T04:59:06;14.80;90.70
30534;DHT22;17318;52.390;9.754;2023-05-29T05:01:32;14.80;90.70
30534;DHT22;17318;52.390;9.754;2023-05-29T05:03:59;14.80;90.90
30534;DHT22;17318;52.390;9.754;2023-05-29T05:06:25;14.80;90.90
30534;DHT22;17318;52.390;9.754;2023-05-29T05:08:51;14.90;90.80
30534;DHT22;17318;52.390;9.754;2023-05-29T05:11:22;14.80;91.00
30534;DHT22;17318;52.390;9.754;2023-05-29T05:13:48;14.90;90.90
30534;DHT22;17318;52.390;9.754;2023-05-29T05:16:14;14.90;90.80
30534;DHT22;17318;52.390;9.754;2023-05-29T05:18:40;14.90;90.80
30534;DHT22;17318;52.390;9.754;2023-05-29T05:21:06;15.00;90.70
30534;DHT22;17318;52.390;9.754;2023-05-29T05:23:32;14.90;90.70
30534;DHT22;17318;52.390;9.754;2023-05-29T05:25:57;15.00;90.70
30534;DHT22;17318;52.390;9.754;2023-05-29T05:28:23;15.00;90.70
30534;DHT22;17318;52.390;9.754;2023-05-29T05:30:49;15.00;90.70
30534;DHT22;17318;52.390;9.754;2023-05-29T05:33:15;15.00;91.00
30534;DHT22;17318;52.390;9.754;2023-05-29T05:35:41;15.10;90.60
30534;DHT22;17318;52.390;9.754;2023-05-29T05:38:06;15.10;90.70
30534;DHT22;17318;52.390;9.754;2023-05-29T05:40:33;15.20;90.60
30534;DHT22;17318;52.390;9.754;2023-05-29T05:42:58;15.30;90.60
30534;DHT22;17318;52.390;9.754;2023-05-29T05:45:24;15.30;90.50
30534;DHT22;17318;52.390;9.754;2023-05-29T05:47:49;15.30;90.50
30534;DHT22;17318;52.390;9.754;2023-05-29T05:50:15;15.40;90.40
30534;DHT22;17318;52.390;9.754;2023-05-29T05:52:41;15.40;90.40
30534;DHT22;17318;52.390;9.754;2023-05-29T05:55:07;15.50;90.30
30534;DHT22;17318;52.390;9.754;2023-05-29T05:57:33;15.50;90.10
30534;DHT22;17318;52.390;9.754;2023-05-29T05:59:59;15.50;90.20
30534;DHT22;17318;52.390;9.754;2023-05-29T06:02:26;15.50;90.10
30534;DHT22;17318;52.390;9.754;2023-05-29T06:04:51;15.40;90.20
30534;DHT22;17318;52.390;9.754;2023-05-29T06:07:17;15.40;90.30
30534;DHT22;17318;52.390;9.754;2023-05-29T06:09:43;15.50;90.30
30534;DHT22;17318;52.390;9.754;2023-05-29T06:12:09;15.50;90.10
30534;DHT22;17318;52.390;9.754;2023-05-29T06:14:35;15.60;90.40
30534;DHT22;17318;52.390;9.754;2023-05-29T06:17:00;15.60;90.80
30534;DHT22;17318;52.390;9.754;2023-05-29T06:19:26;15.70;90.40
30534;DHT22;17318;52.390;9.754;2023-05-29T06:21:52;15.70;90.10
30534;DHT22;17318;52.390;9.754;2023-05-29T06:24:18;15.70;89.90
30534;DHT22;17318;52.390;9.754;2023-05-29T06:26:44;15.80;89.80
30534;DHT22;17318;52.390;9.754;2023-05-29T06:29:09;15.70;89.90
30534;DHT22;17318;52.390;9.754;2023-05-29T06:31:35;15.80;89.90
30534;DHT22;17318;52.390;9.754;2023-05-29T06:34:01;15.80;89.90
30534;DHT22;17318;52.390;9.754;2023-05-29T06:36:27;15.80;90.00
30534;DHT22;17318;52.390;9.754;2023-05-29T06:38:52;15.90;89.80
30534;DHT22;17318;52.390;9.754;2023-05-29T06:41:18;16.00;89.70
30534;DHT22;17318;52.390;9.754;2023-05-29T06:43:44;16.10;89.50
30534;DHT22;17318;52.390;9.754;2023-05-29T06:46:10;16.10;89.20
30534;DHT22;17318;52.390;9.754;2023-05-29T06:48:35;16.30;89.20
30534;DHT22;17318;52.390;9.754;2023-05-29T06:51:02;16.30;88.80
30534;DHT22;17318;52.390;9.754;2023-05-29T06:53:37;16.40;88.40
30534;DHT22;17318;52.390;9.754;2023-05-29T06:56:03;16.50;88.30
30534;DHT22;17318;52.390;9.754;2023-05-29T06:58:30;16.50;88.00
30534;DHT22;17318;52.390;9.754;2023-05-29T07:00:56;16.60;88.20
30534;DHT22;17318;52.390;9.754;2023-05-29T07:03:21;16.60;88.30
30534;DHT22;17318;52.390;9.754;2023-05-29T07:05:47;16.80;87.80
30534;DHT22;17318;52.390;9.754;2023-05-29T07:08:13;16.90;87.30
30534;DHT22;17318;52.390;9.754;2023-05-29T07:10:39;16.90;87.10
30534;DHT22;17318;52.390;9.754;2023-05-29T07:13:04;16.90;87.00
30534;DHT22;17318;52.390;9.754;2023-05-29T07:15:34;17.00;86.70
30534;DHT22;17318;52.390;9.754;2023-05-29T07:18:00;17.10;86.50
30534;DHT22;17318;52.390;9.754;2023-05-29T07:20:26;17.20;86.50
30534;DHT22;17318;52.390;9.754;2023-05-29T07:22:52;17.20;86.70
30534;DHT22;17318;52.390;9.754;2023-05-29T07:25:17;17.40;86.50
30534;DHT22;17318;52.390;9.754;2023-05-29T07:27:43;17.40;85.80
30534;DHT22;17318;52.390;9.754;2023-05-29T07:30:09;17.40;85.50
30534;DHT22;17318;52.390;9.754;2023-05-29T07:32:35;17.50;85.80
30534;DHT22;17318;52.390;9.754;2023-05-29T07:35:01;17.50;85.80
30534;DHT22;17318;52.390;9.754;2023-05-29T07:37:27;17.50;85.10
30534;DHT22;17318;52.390;9.754;2023-05-29T07:39:52;17.30;84.90
30534;DHT22;17318;52.390;9.754;2023-05-29T07:42:18;17.40;85.60
30534;DHT22;17318;52.390;9.754;2023-05-29T07:44:44;17.60;85.10
30534;DHT22;17318;52.390;9.754;2023-05-29T07:47:11;17.70;85.10
30534;DHT22;17318;52.390;9.754;2023-05-29T07:49:37;18.00;84.30
30534;DHT22;17318;52.390;9.754;2023-05-29T07:52:03;18.30;83.50
30534;DHT22;17318;52.390;9.754;2023-05-29T07:54:29;18.40;82.80
30534;DHT22;17318;52.390;9.754;2023-05-29T07:57:01;18.50;82.90
30534;DHT22;17318;52.390;9.754;2023-05-29T07:59:28;18.70;82.30
30534;DHT22;17318;52.390;9.754;2023-05-29T08:01:55;18.80;81.10
30534;DHT22;17318;52.390;9.754;2023-05-29T08:04:24;18.80;81.00
30534;DHT22;17318;52.390;9.754;2023-05-29T08:06:50;18.90;81.20
30534;DHT22;17318;52.390;9.754;2023-05-29T08:09:16;19.00;80.40
30534;DHT22;17318;52.390;9.754;2023-05-29T08:11:42;18.90;80.00
30534;DHT22;17318;52.390;9.754;2023-05-29T08:14:11;19.20;80.40
30534;DHT22;17318;52.390;9.754;2023-05-29T08:16:37;19.40;78.60
30534;DHT22;17318;52.390;9.754;2023-05-29T08:19:02;19.10;78.10
30534;DHT22;17318;52.390;9.754;2023-05-29T08:21:29;19.10;78.70
30534;DHT22;17318;52.390;9.754;2023-05-29T08:23:57;19.70;79.70
30534;DHT22;17318;52.390;9.754;2023-05-29T08:26:23;20.10;77.50
30534;DHT22;17318;52.390;9.754;2023-05-29T08:28:49;20.40;77.10
30534;DHT22;17318;52.390;9.754;2023-05-29T08:31:15;21.10;76.70
30534;DHT22;17318;52.390;9.754;2023-05-29T08:33:41;21.70;73.00
30534;DHT22;17318;52.390;9.754;2023-05-29T08:36:07;22.50;72.20
30534;DHT22;17318;52.390;9.754;2023-05-29T08:38:34;23.30;70.00
30534;DHT22;17318;52.390;9.754;2023-05-29T08:41:01;23.80;68.80
30534;DHT22;17318;52.390;9.754;2023-05-29T08:43:31;24.40;67.80
30534;DHT22;17318;52.390;9.754;2023-05-29T08:46:00;24.90;66.20
30534;DHT22;17318;52.390;9.754;2023-05-29T08:48:28;25.20;61.50
30534;DHT22;17318;52.390;9.754;2023-05-29T08:50:54;25.50;62.20
30534;DHT22;17318;52.390;9.754;2023-05-29T08:53:21;25.70;60.60
30534;DHT22;17318;52.390;9.754;2023-05-29T08:55:48;25.80;58.80
30534;DHT22;17318;52.390;9.754;2023-05-29T08:58:16;25.90;59.40
30534;DHT22;17318;52.390;9.754;2023-05-29T09:00:43;26.00;58.30
30534;DHT22;17318;52.390;9.754;2023-05-29T09:03:08;25.70;58.10
30534;DHT22;17318;52.390;9.754;2023-05-29T09:05:35;25.60;57.90
30534;DHT22;17318;52.390;9.754;2023-05-29T09:08:05;25.80;57.80
30534;DHT22;17318;52.390;9.754;2023-05-29T09:10:32;26.70;57.10
30534;DHT22;17318;52.390;9.754;2023-05-29T09:12:58;26.70;56.90
30534;DHT22;17318;52.390;9.754;2023-05-29T09:15:24;26.90;56.20
30534;DHT22;17318;52.390;9.754;2023-05-29T09:17:51;27.20;54.40
30534;DHT22;17318;52.390;9.754;2023-05-29T09:20:18;26.90;54.40
30534;DHT22;17318;52.390;9.754;2023-05-29T09:22:58;26.00;54.50
30534;DHT22;17318;52.390;9.754;2023-05-29T09:25:25;25.60;54.00
30534;DHT22;17318;52.390;9.754;2023-05-29T09:27:57;25.60;55.20
30534;DHT22;17318;52.390;9.754;2023-05-29T09:30:42;26.10;55.00
30534;DHT22;17318;52.390;9.754;2023-05-29T09:33:09;25.30;54.40
30534;DHT22;17318;52.390;9.754;2023-05-29T09:35:37;24.20;55.90
30534;DHT22;17318;52.390;9.754;2023-05-29T09:38:03;24.10;57.20
30534;DHT22;17318;52.390;9.754;2023-05-29T09:40:31;24.50;57.20
30534;DHT22;17318;52.390;9.754;2023-05-29T09:45:30;25.20;55.70
30534;DHT22;17318;52.390;9.754;2023-05-29T09:47:56;24.60;55.30
30534;DHT22;17318;52.390;9.754;2023-05-29T09:50:26;24.90;55.90
30534;DHT22;17318;52.390;9.754;2023-05-29T09:52:51;24.80;55.50
30534;DHT22;17318;52.390;9.754;2023-05-29T09:55:23;24.70;56.20
30534;DHT22;17318;52.390;9.754;2023-05-29T09:57:49;24.50;55.50
30534;DHT22;17318;52.390;9.754;2023-05-29T10:00:18;24.20;55.90
30534;DHT22;17318;52.390;9.754;2023-05-29T10:02:45;24.10;56.70
30534;DHT22;17318;52.390;9.754;2023-05-29T10:05:11;24.20;56.10
30534;DHT22;17318;52.390;9.754;2023-05-29T10:07:43;24.00;56.70
30534;DHT22;17318;52.390;9.754;2023-05-29T10:10:12;24.30;56.80
30534;DHT22;17318;52.390;9.754;2023-05-29T10:12:41;24.30;56.00
30534;DHT22;17318;52.390;9.754;2023-05-29T10:15:12;24.40;56.20
30534;DHT22;17318;52.390;9.754;2023-05-29T10:17:54;24.40;56.00
30534;DHT22;17318;52.390;9.754;2023-05-29T10:20:22;23.80;56.30
30534;DHT22;17318;52.390;9.754;2023-05-29T10:22:51;23.50;56.30
30534;DHT22;17318;52.390;9.754;2023-05-29T10:25:20;23.80;56.50
30534;DHT22;17318;52.390;9.754;2023-05-29T10:27:49;23.90;56.20
30534;DHT22;17318;52.390;9.754;2023-05-29T10:30:37;23.80;56.00
30534;DHT22;17318;52.390;9.754;2023-05-29T10:33:33;23.10;56.60
30534;DHT22;17318;52.390;9.754;2023-05-29T10:38:35;23.80;59.80
30534;DHT22;17318;52.390;9.754;2023-05-29T10:44:01;24.00;59.40
30534;DHT22;17318;52.390;9.754;2023-05-29T10:49:20;23.70;59.60
30534;DHT22;17318;52.390;9.754;2023-05-29T10:51:46;23.70;59.00
30534;DHT22;17318;52.390;9.754;2023-05-29T10:54:12;23.50;58.40
30534;DHT22;17318;52.390;9.754;2023-05-29T10:56:39;23.40;59.60
30534;DHT22;17318;52.390;9.754;2023-05-29T10:59:08;23.40;59.70
30534;DHT22;17318;52.390;9.754;2023-05-29T11:01:33;23.40;59.50
30534;DHT22;17318;52.390;9.754;2023-05-29T11:06:45;22.60;58.90
30534;DHT22;17318;52.390;9.754;2023-05-29T11:12:22;23.00;59.80
30534;DHT22;17318;52.390;9.754;2023-05-29T11:15:10;23.10;60.10
30534;DHT22;17318;52.390;9.754;2023-05-29T11:20:16;22.90;59.40
30534;DHT22;17318;52.390;9.754;2023-05-29T11:25:14;23.10;60.00
30534;DHT22;17318;52.390;9.754;2023-05-29T11:27:42;22.70;59.00
30534;DHT22;17318;52.390;9.754;2023-05-29T11:30:08;22.60;60.30
30534;DHT22;17318;52.390;9.754;2023-05-29T11:32:34;22.70;60.20
30534;DHT22;17318;52.390;9.754;2023-05-29T11:35:07;22.90;60.10
30534;DHT22;17318;52.390;9.754;2023-05-29T11:37:35;22.90;59.20
30534;DHT22;17318;52.390;9.754;2023-05-29T11:40:04;22.20;58.90
30534;DHT22;17318;52.390;9.754;2023-05-29T11:42:31;22.00;59.20
30534;DHT22;17318;52.390;9.754;2023-05-29T11:45:13;22.10;59.40
30534;DHT22;17318;52.390;9.754;2023-05-29T11:50:28;22.40;58.90
30534;DHT22;17318;52.390;9.754;2023-05-29T11:52:55;22.40;60.40
30534;DHT22;17318;52.390;9.754;2023-05-29T11:55:22;22.70;59.50
30534;DHT22;17318;52.390;9.754;2023-05-29T11:57:55;22.90;59.50
30534;DHT22;17318;52.390;9.754;2023-05-29T12:00:22;22.90;59.30
30534;DHT22;17318;52.390;9.754;2023-05-29T12:02:48;22.90;59.10
30534;DHT22;17318;52.390;9.754;2023-05-29T12:05:17;22.90;59.40
30534;DHT22;17318;52.390;9.754;2023-05-29T12:07:53;23.00;59.80
30534;DHT22;17318;52.390;9.754;2023-05-29T12:10:20;23.20;59.50
30534;DHT22;17318;52.390;9.754;2023-05-29T12:12:57;23.20;58.90
30534;DHT22;17318;52.390;9.754;2023-05-29T12:15:23;23.10;59.00
30534;DHT22;17318;52.390;9.754;2023-05-29T12:17:50;23.10;58.80
30534;DHT22;17318;52.390;9.754;2023-05-29T12:20:17;22.80;58.90
30534;DHT22;17318;52.390;9.754;2023-05-29T12:22:44;22.60;58.90
30534;DHT22;17318;52.390;9.754;2023-05-29T12:25:16;22.50;58.60
30534;DHT22;17318;52.390;9.754;2023-05-29T12:27:43;22.30;59.20
30534;DHT22;17318;52.390;9.754;2023-05-29T12:30:13;22.50;59.20
30534;DHT22;17318;52.390;9.754;2023-05-29T12:32:44;22.70;59.30
30534;DHT22;17318;52.390;9.754;2023-05-29T12:35:18;22.90;58.60
30534;DHT22;17318;52.390;9.754;2023-05-29T12:40:23;22.80;58.10
30534;DHT22;17318;52.390;9.754;2023-05-29T12:42:58;23.00;58.30
30534;DHT22;17318;52.390;9.754;2023-05-29T12:45:29;22.90;57.70
30534;DHT22;17318;52.390;9.754;2023-05-29T12:48:00;23.10;57.00
30534;DHT22;17318;52.390;9.754;2023-05-29T12:50:30;22.90;56.60
30534;DHT22;17318;52.390;9.754;2023-05-29T12:55:31;22.60;57.20
30534;DHT22;17318;52.390;9.754;2023-05-29T12:58:02;22.30;56.30
30534;DHT22;17318;52.390;9.754;2023-05-29T13:00:28;22.50;59.50
30534;DHT22;17318;52.390;9.754;2023-05-29T13:02:54;22.70;58.90
30534;DHT22;17318;52.390;9.754;2023-05-29T13:05:20;22.90;58.10
30534;DHT22;17318;52.390;9.754;2023-05-29T13:07:51;22.90;57.60
30534;DHT22;17318;52.390;9.754;2023-05-29T13:10:17;22.50;55.40
30534;DHT22;17318;52.390;9.754;2023-05-29T13:12:43;22.60;55.60
30534;DHT22;17318;52.390;9.754;2023-05-29T13:15:11;22.60;54.00
30534;DHT22;17318;52.390;9.754;2023-05-29T13:17:38;22.60;52.90
30534;DHT22;17318;52.390;9.754;2023-05-29T13:20:11;22.60;52.20
30534;DHT22;17318;52.390;9.754;2023-05-29T13:22:41;22.60;51.50
30534;DHT22;17318;52.390;9.754;2023-05-29T13:25:09;22.50;51.30
30534;DHT22;17318;52.390;9.754;2023-05-29T13:27:37;22.50;50.60
30534;DHT22;17318;52.390;9.754;2023-05-29T13:30:03;22.40;50.60
30534;DHT22;17318;52.390;9.754;2023-05-29T13:32:30;22.30;50.40
30534;DHT22;17318;52.390;9.754;2023-05-29T13:34:56;22.10;50.30
30534;DHT22;17318;52.390;9.754;2023-05-29T13:37:22;22.00;50.20
30534;DHT22;17318;52.390;9.754;2023-05-29T13:39:47;22.10;50.70
30534;DHT22;17318;52.390;9.754;2023-05-29T13:42:13;22.00;48.90
30534;DHT22;17318;52.390;9.754;2023-05-29T13:44:39;22.00;50.00
30534;DHT22;17318;52.390;9.754;2023-05-29T13:47:07;22.20;49.50
30534;DHT22;17318;52.390;9.754;2023-05-29T13:49:34;22.20;49.00
30534;DHT22;17318;52.390;9.754;2023-05-29T13:52:00;22.00;47.30
30534;DHT22;17318;52.390;9.754;2023-05-29T13:54:26;21.70;46.80
30534;DHT22;17318;52.390;9.754;2023-05-29T13:56:55;21.70;47.50
30534;DHT22;17318;52.390;9.754;2023-05-29T13:59:21;21.90;48.00
30534;DHT22;17318;52.390;9.754;2023-05-29T14:01:47;22.00;49.30
30534;DHT22;17318;52.390;9.754;2023-05-29T14:04:13;21.90;48.50
30534;DHT22;17318;52.390;9.754;2023-05-29T14:06:38;21.90;49.00
30534;DHT22;17318;52.390;9.754;2023-05-29T14:09:04;21.90;48.20
30534;DHT22;17318;52.390;9.754;2023-05-29T14:11:30;21.80;47.70
30534;DHT22;17318;52.390;9.754;2023-05-29T14:13:55;21.90;48.30
30534;DHT22;17318;52.390;9.754;2023-05-29T14:16:21;21.80;47.80
30534;DHT22;17318;52.390;9.754;2023-05-29T14:18:47;21.90;48.60
30534;DHT22;17318;52.390;9.754;2023-05-29T14:21:14;21.80;48.40
30534;DHT22;17318;52.390;9.754;2023-05-29T14:23:39;22.00;48.30
30534;DHT22;17318;52.390;9.754;2023-05-29T14:26:05;22.00;48.10
30534;DHT22;17318;52.390;9.754;2023-05-29T14:28:31;22.10;47.80
30534;DHT22;17318;52.390;9.754;2023-05-29T14:30:56;21.70;47.10
30534;DHT22;17318;52.390;9.754;2023-05-29T14:33:22;21.70;47.40
30534;DHT22;17318;52.390;9.754;2023-05-29T14:35:48;21.70;47.30
30534;DHT22;17318;52.390;9.754;2023-05-29T14:38:13;21.80;47.70
30534;DHT22;17318;52.390;9.754;2023-05-29T14:40:39;21.70;47.70
30534;DHT22;17318;52.390;9.754;2023-05-29T14:43:05;21.90;48.40
30534;DHT22;17318;52.390;9.754;2023-05-29T14:45:30;21.90;48.60
30534;DHT22;17318;52.390;9.754;2023-05-29T14:47:57;22.00;48.90
30534;DHT22;17318;52.390;9.754;2023-05-29T14:50:22;22.10;49.00
30534;DHT22;17318;52.390;9.754;2023-05-29T14:52:48;22.10;46.50
30534;DHT22;17318;52.390;9.754;2023-05-29T14:55:14;21.90;47.50
30534;DHT22;17318;52.390;9.754;2023-05-29T14:57:42;22.00;49.00
30534;DHT22;17318;52.390;9.754;2023-05-29T15:00:08;22.10;48.10
30534;DHT22;17318;52.390;9.754;2023-05-29T15:02:34;22.20;49.20
30534;DHT22;17318;52.390;9.754;2023-05-29T15:05:00;21.90;48.10
30534;DHT22;17318;52.390;9.754;2023-05-29T15:07:25;22.00;49.60
30534;DHT22;17318;52.390;9.754;2023-05-29T15:09:51;21.80;48.50
30534;DHT22;17318;52.390;9.754;2023-05-29T15:12:17;21.80;48.70
30534;DHT22;17318;52.390;9.754;2023-05-29T15:14:43;21.80;49.20
30534;DHT22;17318;52.390;9.754;2023-05-29T15:17:08;21.90;50.30
30534;DHT22;17318;52.390;9.754;2023-05-29T15:19:34;22.10;50.70
30534;DHT22;17318;52.390;9.754;2023-05-29T15:22:00;22.10;51.00
30534;DHT22;17318;52.390;9.754;2023-05-29T15:24:25;21.90;50.40
30534;DHT22;17318;52.390;9.754;2023-05-29T15:26:51;21.70;50.60
30534;DHT22;17318;52.390;9.754;2023-05-29T15:29:17;21.90;51.00
30534;DHT22;17318;52.390;9.754;2023-05-29T15:31:43;22.10;50.60
30534;DHT22;17318;52.390;9.754;2023-05-29T15:34:08;22.20;50.20
30534;DHT22;17318;52.390;9.754;2023-05-29T15:36:34;22.20;48.90
30534;DHT22;17318;52.390;9.754;2023-05-29T15:39:05;22.20;48.60
30534;DHT22;17318;52.390;9.754;2023-05-29T15:41:31;22.20;49.20
30534;DHT22;17318;52.390;9.754;2023-05-29T15:43:57;22.20;48.30
30534;DHT22;17318;52.390;9.754;2023-05-29T15:46:27;22.00;47.20
30534;DHT22;17318;52.390;9.754;2023-05-29T15:48:53;21.80;46.80
30534;DHT22;17318;52.390;9.754;2023-05-29T15:51:19;21.80;48.00
30534;DHT22;17318;52.390;9.754;2023-05-29T15:53:45;22.00;48.70
30534;DHT22;17318;52.390;9.754;2023-05-29T15:56:11;22.10;49.00
30534;DHT22;17318;52.390;9.754;2023-05-29T15:58:37;22.10;48.30
30534;DHT22;17318;52.390;9.754;2023-05-29T16:01:02;22.10;48.20
30534;DHT22;17318;52.390;9.754;2023-05-29T16:03:28;22.10;48.40
30534;DHT22;17318;52.390;9.754;2023-05-29T16:05:54;22.10;48.60